sensor_id;sensor_type;location;lat;lon;timestamp;P1;durP1;ratioP1;P2;durP2;ratioP2
54201;SDS011;40108;53.152;5.844;2024-01-25T00:01:12;53.72;;;5.68;;
54201;SDS011;40108;53.152;5.844;2024-01-25T00:03:38;50.08;;;6.88;;
54201;SDS011;40108;53.152;5.844;2024-01-25T00:06:06;51.28;;;6.47;;
54201;SDS011;40108;53.152;5.844;2024-01-25T00:08:33;45.97;;;6.45;;
54201;SDS011;40108;53.152;5.844;2024-01-25T00:10:59;43.35;;;6.05;;
54201;SDS011;40108;53.152;5.844;2024-01-25T00:13:26;51.22;;;6.35;;
54201;SDS011;40108;53.152;5.844;2024-01-25T00:15:52;52.58;;;6.20;;
54201;SDS011;40108;53.152;5.844;2024-01-25T00:18:18;52.40;;;6.13;;
54201;SDS011;40108;53.152;5.844;2024-01-25T00:20:43;49.47;;;6.80;;
54201;SDS011;40108;53.152;5.844;2024-01-25T00:23:09;58.45;;;7.25;;
54201;SDS011;40108;53.152;5.844;2024-01-25T00:25:35;42.40;;;7.40;;
54201;SDS011;40108;53.152;5.844;2024-01-25T00:28:00;50.80;;;6.47;;
54201;SDS011;40108;53.152;5.844;2024-01-25T00:30:26;50.50;;;6.28;;
54201;SDS011;40108;53.152;5.844;2024-01-25T00:32:52;47.78;;;6.45;;
54201;SDS011;40108;53.152;5.844;2024-01-25T00:35:17;49.25;;;6.25;;
54201;SDS011;40108;53.152;5.844;2024-01-25T00:37:43;50.00;;;6.55;;
54201;SDS011;40108;53.152;5.844;2024-01-25T00:40:09;49.83;;;6.47;;
54201;SDS011;40108;53.152;5.844;2024-01-25T00:42:41;51.17;;;6.50;;
54201;SDS011;40108;53.152;5.844;2024-01-25T00:45:08;52.95;;;5.95;;
54201;SDS011;40108;53.152;5.844;2024-01-25T00:47:34;53.75;;;7.68;;
54201;SDS011;40108;53.152;5.844;2024-01-25T00:50:00;54.50;;;6.38;;
54201;SDS011;40108;53.152;5.844;2024-01-25T00:52:26;59.55;;;8.63;;
54201;SDS011;40108;53.152;5.844;2024-01-25T00:54:52;50.08;;;6.93;;
54201;SDS011;40108;53.152;5.844;2024-01-25T00:57:18;49.83;;;7.22;;
54201;SDS011;40108;53.152;5.844;2024-01-25T00:59:44;55.72;;;7.25;;
54201;SDS011;40108;53.152;5.844;2024-01-25T01:02:11;48.55;;;7.35;;
54201;SDS011;40108;53.152;5.844;2024-01-25T01:04:38;48.65;;;6.47;;
54201;SDS011;40108;53.152;5.844;2024-01-25T01:07:05;47.75;;;6.40;;
54201;SDS011;40108;53.152;5.844;2024-01-25T01:09:31;44.05;;;6.43;;
54201;SDS011;40108;53.152;5.844;2024-01-25T01:11:56;53.30;;;8.32;;
54201;SDS011;40108;53.152;5.844;2024-01-25T01:14:22;48.70;;;7.43;;
54201;SDS011;40108;53.152;5.844;2024-01-25T01:16:48;49.05;;;6.80;;
54201;SDS011;40108;53.152;5.844;2024-01-25T01:19:15;53.15;;;6.75;;
54201;SDS011;40108;53.152;5.844;2024-01-25T01:21:41;50.83;;;7.18;;
54201;SDS011;40108;53.152;5.844;2024-01-25T01:24:09;54.42;;;7.20;;
54201;SDS011;40108;53.152;5.844;2024-01-25T01:26:36;50.38;;;8.10;;
54201;SDS011;40108;53.152;5.844;2024-01-25T01:29:02;58.35;;;7.22;;
54201;SDS011;40108;53.152;5.844;2024-01-25T01:31:28;50.22;;;7.80;;
54201;SDS011;40108;53.152;5.844;2024-01-25T01:33:53;54.72;;;8.15;;
54201;SDS011;40108;53.152;5.844;2024-01-25T01:36:19;51.38;;;6.82;;
54201;SDS011;40108;53.152;5.844;2024-01-25T01:38:45;54.65;;;6.68;;
54201;SDS011;40108;53.152;5.844;2024-01-25T01:41:11;61.22;;;7.60;;
54201;SDS011;40108;53.152;5.844;2024-01-25T01:43:38;64.82;;;7.35;;
54201;SDS011;40108;53.152;5.844;2024-01-25T01:46:04;53.70;;;7.47;;
54201;SDS011;40108;53.152;5.844;2024-01-25T01:48:35;53.53;;;7.32;;
54201;SDS011;40108;53.152;5.844;2024-01-25T01:51:01;55.10;;;7.97;;
54201;SDS011;40108;53.152;5.844;2024-01-25T01:53:27;55.92;;;6.78;;
54201;SDS011;40108;53.152;5.844;2024-01-25T01:55:53;45.80;;;6.18;;
54201;SDS011;40108;53.152;5.844;2024-01-25T01:58:19;54.83;;;6.88;;
54201;SDS011;40108;53.152;5.844;2024-01-25T02:00:48;51.53;;;6.70;;
54201;SDS011;40108;53.152;5.844;2024-01-25T02:03:15;52.47;;;7.05;;
54201;SDS011;40108;53.152;5.844;2024-01-25T02:05:41;50.97;;;7.53;;
54201;SDS011;40108;53.152;5.844;2024-01-25T02:08:07;53.45;;;6.72;;
54201;SDS011;40108;53.152;5.844;2024-01-25T02:10:34;55.47;;;7.03;;
54201;SDS011;40108;53.152;5.844;2024-01-25T02:12:59;56.00;;;6.53;;
54201;SDS011;40108;53.152;5.844;2024-01-25T02:15:25;45.60;;;6.38;;
54201;SDS011;40108;53.152;5.844;2024-01-25T02:17:51;48.42;;;7.47;;
54201;SDS011;40108;53.152;5.844;2024-01-25T02:20:18;53.72;;;6.97;;
54201;SDS011;40108;53.152;5.844;2024-01-25T02:22:44;46.97;;;6.13;;
54201;SDS011;40108;53.152;5.844;2024-01-25T02:25:09;50.22;;;8.57;;
54201;SDS011;40108;53.152;5.844;2024-01-25T02:27:35;52.13;;;6.57;;
54201;SDS011;40108;53.152;5.844;2024-01-25T02:30:04;60.40;;;6.72;;
54201;SDS011;40108;53.152;5.844;2024-01-25T02:32:31;53.97;;;7.05;;
54201;SDS011;40108;53.152;5.844;2024-01-25T02:34:57;55.95;;;7.43;;
54201;SDS011;40108;53.152;5.844;2024-01-25T02:37:23;57.88;;;7.35;;
54201;SDS011;40108;53.152;5.844;2024-01-25T02:39:48;56.72;;;6.63;;
54201;SDS011;40108;53.152;5.844;2024-01-25T02:42:14;60.17;;;6.85;;
54201;SDS011;40108;53.152;5.844;2024-01-25T02:44:41;49.30;;;7.13;;
54201;SDS011;40108;53.152;5.844;2024-01-25T02:47:07;47.63;;;6.85;;
54201;SDS011;40108;53.152;5.844;2024-01-25T02:49:33;58.70;;;7.38;;
54201;SDS011;40108;53.152;5.844;2024-01-25T02:51:59;56.83;;;7.35;;
54201;SDS011;40108;53.152;5.844;2024-01-25T02:54:25;48.67;;;7.40;;
54201;SDS011;40108;53.152;5.844;2024-01-25T02:56:51;49.80;;;6.88;;
54201;SDS011;40108;53.152;5.844;2024-01-25T02:59:16;58.70;;;7.72;;
54201;SDS011;40108;53.152;5.844;2024-01-25T03:01:43;52.33;;;7.30;;
54201;SDS011;40108;53.152;5.844;2024-01-25T03:04:10;51.47;;;6.28;;
54201;SDS011;40108;53.152;5.844;2024-01-25T03:06:36;52.03;;;7.13;;
54201;SDS011;40108;53.152;5.844;2024-01-25T03:09:02;50.47;;;6.20;;
54201;SDS011;40108;53.152;5.844;2024-01-25T03:11:29;61.03;;;6.32;;
54201;SDS011;40108;53.152;5.844;2024-01-25T03:13:56;45.60;;;6.07;;
54201;SDS011;40108;53.152;5.844;2024-01-25T03:16:22;60.08;;;7.25;;
54201;SDS011;40108;53.152;5.844;2024-01-25T03:18:47;59.28;;;7.50;;
54201;SDS011;40108;53.152;5.844;2024-01-25T03:21:13;54.78;;;6.20;;
54201;SDS011;40108;53.152;5.844;2024-01-25T03:23:39;51.53;;;6.40;;
54201;SDS011;40108;53.152;5.844;2024-01-25T03:26:05;53.83;;;7.32;;
54201;SDS011;40108;53.152;5.844;2024-01-25T03:28:31;54.67;;;7.30;;
54201;SDS011;40108;53.152;5.844;2024-01-25T03:30:57;53.28;;;7.75;;
54201;SDS011;40108;53.152;5.844;2024-01-25T03:33:22;52.83;;;6.47;;
54201;SDS011;40108;53.152;5.844;2024-01-25T03:35:48;69.75;;;6.50;;
54201;SDS011;40108;53.152;5.844;2024-01-25T03:38:13;50.15;;;6.90;;
54201;SDS011;40108;53.152;5.844;2024-01-25T03:40:39;55.92;;;6.70;;
54201;SDS011;40108;53.152;5.844;2024-01-25T03:43:05;66.20;;;8.13;;
54201;SDS011;40108;53.152;5.844;2024-01-25T03:45:31;46.60;;;6.97;;
54201;SDS011;40108;53.152;5.844;2024-01-25T03:47:57;55.97;;;6.60;;
54201;SDS011;40108;53.152;5.844;2024-01-25T03:50:23;61.55;;;7.15;;
54201;SDS011;40108;53.152;5.844;2024-01-25T03:52:49;54.67;;;6.40;;
54201;SDS011;40108;53.152;5.844;2024-01-25T03:55:15;54.42;;;7.13;;
54201;SDS011;40108;53.152;5.844;2024-01-25T03:57:40;55.78;;;6.65;;
54201;SDS011;40108;53.152;5.844;2024-01-25T04:00:07;59.92;;;7.05;;
54201;SDS011;40108;53.152;5.844;2024-01-25T04:02:34;53.25;;;7.13;;
54201;SDS011;40108;53.152;5.844;2024-01-25T04:04:59;54.65;;;7.50;;
54201;SDS011;40108;53.152;5.844;2024-01-25T04:07:25;67.53;;;7.57;;
54201;SDS011;40108;53.152;5.844;2024-01-25T04:09:51;67.22;;;8.02;;
54201;SDS011;40108;53.152;5.844;2024-01-25T04:12:17;80.47;;;7.72;;
54201;SDS011;40108;53.152;5.844;2024-01-25T04:14:42;58.92;;;6.97;;
54201;SDS011;40108;53.152;5.844;2024-01-25T04:17:08;61.17;;;7.38;;
54201;SDS011;40108;53.152;5.844;2024-01-25T04:19:35;55.83;;;6.85;;
54201;SDS011;40108;53.152;5.844;2024-01-25T04:22:01;72.75;;;7.68;;
54201;SDS011;40108;53.152;5.844;2024-01-25T04:24:27;62.08;;;6.60;;
54201;SDS011;40108;53.152;5.844;2024-01-25T04:26:52;68.38;;;7.72;;
54201;SDS011;40108;53.152;5.844;2024-01-25T04:29:18;75.30;;;8.07;;
54201;SDS011;40108;53.152;5.844;2024-01-25T04:31:44;56.60;;;6.75;;
54201;SDS011;40108;53.152;5.844;2024-01-25T04:34:12;58.30;;;7.03;;
54201;SDS011;40108;53.152;5.844;2024-01-25T04:36:38;61.00;;;6.85;;
54201;SDS011;40108;53.152;5.844;2024-01-25T04:39:04;67.60;;;7.45;;
54201;SDS011;40108;53.152;5.844;2024-01-25T04:41:29;59.17;;;6.80;;
54201;SDS011;40108;53.152;5.844;2024-01-25T04:43:55;70.45;;;7.95;;
54201;SDS011;40108;53.152;5.844;2024-01-25T04:46:21;60.55;;;7.22;;
54201;SDS011;40108;53.152;5.844;2024-01-25T04:48:46;61.83;;;7.47;;
54201;SDS011;40108;53.152;5.844;2024-01-25T04:51:18;57.88;;;7.53;;
54201;SDS011;40108;53.152;5.844;2024-01-25T04:53:45;61.88;;;7.32;;
54201;SDS011;40108;53.152;5.844;2024-01-25T04:56:11;65.97;;;6.90;;
54201;SDS011;40108;53.152;5.844;2024-01-25T04:58:37;69.97;;;7.03;;
54201;SDS011;40108;53.152;5.844;2024-01-25T05:01:02;63.35;;;7.18;;
54201;SDS011;40108;53.152;5.844;2024-01-25T05:03:29;58.08;;;6.78;;
54201;SDS011;40108;53.152;5.844;2024-01-25T05:05:55;63.63;;;7.70;;
54201;SDS011;40108;53.152;5.844;2024-01-25T05:08:21;68.40;;;7.45;;
54201;SDS011;40108;53.152;5.844;2024-01-25T05:10:47;57.38;;;7.60;;
54201;SDS011;40108;53.152;5.844;2024-01-25T05:13:12;60.63;;;6.75;;
54201;SDS011;40108;53.152;5.844;2024-01-25T05:15:38;61.22;;;7.43;;
54201;SDS011;40108;53.152;5.844;2024-01-25T05:18:04;71.28;;;7.03;;
54201;SDS011;40108;53.152;5.844;2024-01-25T05:20:31;62.28;;;7.25;;
54201;SDS011;40108;53.152;5.844;2024-01-25T05:23:02;66.65;;;7.13;;
54201;SDS011;40108;53.152;5.844;2024-01-25T05:25:29;66.18;;;7.28;;
54201;SDS011;40108;53.152;5.844;2024-01-25T05:27:55;52.30;;;6.72;;
54201;SDS011;40108;53.152;5.844;2024-01-25T05:30:21;66.07;;;7.30;;
54201;SDS011;40108;53.152;5.844;2024-01-25T05:32:47;68.00;;;7.22;;
54201;SDS011;40108;53.152;5.844;2024-01-25T05:35:16;54.35;;;6.93;;
54201;SDS011;40108;53.152;5.844;2024-01-25T05:37:42;66.95;;;7.00;;
54201;SDS011;40108;53.152;5.844;2024-01-25T05:40:08;56.20;;;6.20;;
54201;SDS011;40108;53.152;5.844;2024-01-25T05:42:37;65.65;;;7.28;;
54201;SDS011;40108;53.152;5.844;2024-01-25T05:45:03;68.53;;;7.82;;
54201;SDS011;40108;53.152;5.844;2024-01-25T05:47:29;50.15;;;7.07;;
54201;SDS011;40108;53.152;5.844;2024-01-25T05:49:55;58.20;;;7.55;;
54201;SDS011;40108;53.152;5.844;2024-01-25T05:52:21;57.80;;;7.07;;
54201;SDS011;40108;53.152;5.844;2024-01-25T05:54:47;54.28;;;6.55;;
54201;SDS011;40108;53.152;5.844;2024-01-25T05:57:14;62.60;;;7.10;;
54201;SDS011;40108;53.152;5.844;2024-01-25T05:59:39;69.35;;;7.78;;
54201;SDS011;40108;53.152;5.844;2024-01-25T06:02:05;50.35;;;6.88;;
54201;SDS011;40108;53.152;5.844;2024-01-25T06:04:32;71.22;;;6.93;;
54201;SDS011;40108;53.152;5.844;2024-01-25T06:06:58;60.08;;;6.78;;
54201;SDS011;40108;53.152;5.844;2024-01-25T06:09:24;50.65;;;5.85;;
54201;SDS011;40108;53.152;5.844;2024-01-25T06:11:50;60.20;;;6.30;;
54201;SDS011;40108;53.152;5.844;2024-01-25T06:14:16;69.97;;;6.30;;
54201;SDS011;40108;53.152;5.844;2024-01-25T06:16:42;56.92;;;6.47;;
54201;SDS011;40108;53.152;5.844;2024-01-25T06:19:08;57.63;;;6.97;;
54201;SDS011;40108;53.152;5.844;2024-01-25T06:21:33;60.75;;;6.82;;
54201;SDS011;40108;53.152;5.844;2024-01-25T06:24:04;55.38;;;6.32;;
54201;SDS011;40108;53.152;5.844;2024-01-25T06:26:30;66.03;;;6.47;;
54201;SDS011;40108;53.152;5.844;2024-01-25T06:28:56;59.10;;;7.47;;
54201;SDS011;40108;53.152;5.844;2024-01-25T06:31:22;70.15;;;6.95;;
54201;SDS011;40108;53.152;5.844;2024-01-25T06:33:49;67.03;;;6.80;;
54201;SDS011;40108;53.152;5.844;2024-01-25T06:36:19;54.20;;;6.72;;
54201;SDS011;40108;53.152;5.844;2024-01-25T06:38:45;62.25;;;7.13;;
54201;SDS011;40108;53.152;5.844;2024-01-25T06:41:11;57.40;;;6.53;;
54201;SDS011;40108;53.152;5.844;2024-01-25T06:43:36;71.38;;;7.35;;
54201;SDS011;40108;53.152;5.844;2024-01-25T06:46:02;55.05;;;6.05;;
54201;SDS011;40108;53.152;5.844;2024-01-25T06:48:28;64.47;;;6.85;;
54201;SDS011;40108;53.152;5.844;2024-01-25T06:50:54;64.20;;;6.95;;
54201;SDS011;40108;53.152;5.844;2024-01-25T06:53:20;69.78;;;6.97;;
54201;SDS011;40108;53.152;5.844;2024-01-25T06:55:46;56.88;;;6.38;;
54201;SDS011;40108;53.152;5.844;2024-01-25T06:58:12;62.78;;;7.25;;
54201;SDS011;40108;53.152;5.844;2024-01-25T07:00:38;71.95;;;7.28;;
54201;SDS011;40108;53.152;5.844;2024-01-25T07:03:04;60.88;;;8.02;;
54201;SDS011;40108;53.152;5.844;2024-01-25T07:05:30;71.70;;;8.10;;
54201;SDS011;40108;53.152;5.844;2024-01-25T07:07:58;54.50;;;6.57;;
54201;SDS011;40108;53.152;5.844;2024-01-25T07:10:25;64.97;;;6.95;;
54201;SDS011;40108;53.152;5.844;2024-01-25T07:12:51;57.53;;;6.80;;
54201;SDS011;40108;53.152;5.844;2024-01-25T07:15:18;59.03;;;6.90;;
54201;SDS011;40108;53.152;5.844;2024-01-25T07:17:44;62.95;;;6.88;;
54201;SDS011;40108;53.152;5.844;2024-01-25T07:20:10;48.15;;;6.15;;
54201;SDS011;40108;53.152;5.844;2024-01-25T07:22:36;67.10;;;6.28;;
54201;SDS011;40108;53.152;5.844;2024-01-25T07:25:02;67.95;;;7.00;;
54201;SDS011;40108;53.152;5.844;2024-01-25T07:27:28;55.22;;;6.60;;
54201;SDS011;40108;53.152;5.844;2024-01-25T07:29:53;59.20;;;6.82;;
54201;SDS011;40108;53.152;5.844;2024-01-25T07:32:19;86.38;;;8.15;;
54201;SDS011;40108;53.152;5.844;2024-01-25T07:34:45;84.45;;;7.57;;
54201;SDS011;40108;53.152;5.844;2024-01-25T07:37:11;60.03;;;6.60;;
54201;SDS011;40108;53.152;5.844;2024-01-25T07:39:37;49.45;;;6.13;;
54201;SDS011;40108;53.152;5.844;2024-01-25T07:42:03;61.85;;;7.13;;
54201;SDS011;40108;53.152;5.844;2024-01-25T07:44:29;58.88;;;7.18;;
54201;SDS011;40108;53.152;5.844;2024-01-25T07:46:55;57.42;;;7.03;;
54201;SDS011;40108;53.152;5.844;2024-01-25T07:49:20;72.03;;;7.00;;
54201;SDS011;40108;53.152;5.844;2024-01-25T07:51:46;68.85;;;7.35;;
54201;SDS011;40108;53.152;5.844;2024-01-25T07:54:12;69.40;;;7.45;;
54201;SDS011;40108;53.152;5.844;2024-01-25T07:56:38;72.57;;;6.22;;
54201;SDS011;40108;53.152;5.844;2024-01-25T07:59:04;68.75;;;7.75;;
54201;SDS011;40108;53.152;5.844;2024-01-25T08:01:29;66.47;;;7.82;;
54201;SDS011;40108;53.152;5.844;2024-01-25T08:03:55;77.13;;;9.73;;
54201;SDS011;40108;53.152;5.844;2024-01-25T08:06:21;64.63;;;8.38;;
54201;SDS011;40108;53.152;5.844;2024-01-25T08:08:47;76.25;;;9.95;;
54201;SDS011;40108;53.152;5.844;2024-01-25T08:11:13;69.38;;;9.02;;
54201;SDS011;40108;53.152;5.844;2024-01-25T08:13:42;63.40;;;9.13;;
54201;SDS011;40108;53.152;5.844;2024-01-25T08:16:10;67.53;;;7.18;;
54201;SDS011;40108;53.152;5.844;2024-01-25T08:18:37;72.50;;;7.68;;
54201;SDS011;40108;53.152;5.844;2024-01-25T08:21:03;60.72;;;6.50;;
54201;SDS011;40108;53.152;5.844;2024-01-25T08:23:29;68.88;;;7.20;;
54201;SDS011;40108;53.152;5.844;2024-01-25T08:25:55;66.25;;;6.85;;
54201;SDS011;40108;53.152;5.844;2024-01-25T08:28:20;60.20;;;6.18;;
54201;SDS011;40108;53.152;5.844;2024-01-25T08:30:47;69.43;;;8.00;;
54201;SDS011;40108;53.152;5.844;2024-01-25T08:33:13;58.60;;;7.03;;
54201;SDS011;40108;53.152;5.844;2024-01-25T08:35:38;51.25;;;7.63;;
54201;SDS011;40108;53.152;5.844;2024-01-25T08:38:06;64.75;;;7.18;;
54201;SDS011;40108;53.152;5.844;2024-01-25T08:40:32;57.85;;;7.20;;
54201;SDS011;40108;53.152;5.844;2024-01-25T08:42:58;62.70;;;7.18;;
54201;SDS011;40108;53.152;5.844;2024-01-25T08:45:24;65.95;;;6.68;;
54201;SDS011;40108;53.152;5.844;2024-01-25T08:47:50;67.03;;;7.63;;
54201;SDS011;40108;53.152;5.844;2024-01-25T08:50:17;74.93;;;7.15;;
54201;SDS011;40108;53.152;5.844;2024-01-25T08:52:43;70.78;;;7.22;;
54201;SDS011;40108;53.152;5.844;2024-01-25T08:55:09;73.85;;;8.05;;
54201;SDS011;40108;53.152;5.844;2024-01-25T08:57:35;68.97;;;7.55;;
54201;SDS011;40108;53.152;5.844;2024-01-25T09:00:01;66.80;;;7.70;;
54201;SDS011;40108;53.152;5.844;2024-01-25T09:02:27;74.45;;;7.40;;
54201;SDS011;40108;53.152;5.844;2024-01-25T09:04:54;68.50;;;7.55;;
54201;SDS011;40108;53.152;5.844;2024-01-25T09:07:21;76.18;;;7.25;;
54201;SDS011;40108;53.152;5.844;2024-01-25T09:09:47;72.25;;;7.75;;
54201;SDS011;40108;53.152;5.844;2024-01-25T09:12:13;65.03;;;8.43;;
54201;SDS011;40108;53.152;5.844;2024-01-25T09:14:39;66.95;;;6.43;;
54201;SDS011;40108;53.152;5.844;2024-01-25T09:17:05;63.35;;;7.32;;
54201;SDS011;40108;53.152;5.844;2024-01-25T09:19:30;68.35;;;8.98;;
54201;SDS011;40108;53.152;5.844;2024-01-25T09:21:56;74.10;;;9.20;;
54201;SDS011;40108;53.152;5.844;2024-01-25T09:24:26;72.22;;;7.43;;
54201;SDS011;40108;53.152;5.844;2024-01-25T09:26:51;68.45;;;7.78;;
54201;SDS011;40108;53.152;5.844;2024-01-25T09:29:17;63.88;;;8.13;;
54201;SDS011;40108;53.152;5.844;2024-01-25T09:31:43;60.67;;;7.80;;
54201;SDS011;40108;53.152;5.844;2024-01-25T09:34:08;61.80;;;7.07;;
54201;SDS011;40108;53.152;5.844;2024-01-25T09:36:34;56.83;;;7.15;;
54201;SDS011;40108;53.152;5.844;2024-01-25T09:39:00;65.45;;;7.75;;
54201;SDS011;40108;53.152;5.844;2024-01-25T09:41:25;52.30;;;8.30;;
54201;SDS011;40108;53.152;5.844;2024-01-25T09:43:52;58.35;;;7.05;;
54201;SDS011;40108;53.152;5.844;2024-01-25T09:46:18;63.55;;;8.02;;
54201;SDS011;40108;53.152;5.844;2024-01-25T09:48:44;55.85;;;7.38;;
54201;SDS011;40108;53.152;5.844;2024-01-25T09:51:11;67.00;;;7.88;;
54201;SDS011;40108;53.152;5.844;2024-01-25T09:53:38;63.97;;;7.57;;
54201;SDS011;40108;53.152;5.844;2024-01-25T09:56:07;51.35;;;6.80;;
54201;SDS011;40108;53.152;5.844;2024-01-25T09:58:42;56.78;;;8.32;;
54201;SDS011;40108;53.152;5.844;2024-01-25T10:01:11;53.58;;;7.47;;
54201;SDS011;40108;53.152;5.844;2024-01-25T10:03:47;55.33;;;7.30;;
54201;SDS011;40108;53.152;5.844;2024-01-25T10:06:13;71.30;;;8.23;;
54201;SDS011;40108;53.152;5.844;2024-01-25T10:08:40;61.85;;;7.22;;
54201;SDS011;40108;53.152;5.844;2024-01-25T10:11:06;67.20;;;8.07;;
54201;SDS011;40108;53.152;5.844;2024-01-25T10:13:46;50.80;;;7.05;;
54201;SDS011;40108;53.152;5.844;2024-01-25T10:16:16;63.15;;;7.82;;
54201;SDS011;40108;53.152;5.844;2024-01-25T10:18:43;54.72;;;7.28;;
54201;SDS011;40108;53.152;5.844;2024-01-25T10:21:12;54.13;;;6.90;;
54201;SDS011;40108;53.152;5.844;2024-01-25T10:23:39;53.67;;;7.75;;
54201;SDS011;40108;53.152;5.844;2024-01-25T10:26:05;53.13;;;7.68;;
54201;SDS011;40108;53.152;5.844;2024-01-25T10:28:33;48.90;;;6.72;;
54201;SDS011;40108;53.152;5.844;2024-01-25T10:31:01;50.75;;;7.25;;
54201;SDS011;40108;53.152;5.844;2024-01-25T10:33:29;49.38;;;7.15;;
54201;SDS011;40108;53.152;5.844;2024-01-25T10:35:56;42.67;;;7.65;;
54201;SDS011;40108;53.152;5.844;2024-01-25T10:38:29;46.33;;;8.00;;
54201;SDS011;40108;53.152;5.844;2024-01-25T10:41:01;65.25;;;9.15;;
54201;SDS011;40108;53.152;5.844;2024-01-25T10:43:30;56.08;;;7.78;;
54201;SDS011;40108;53.152;5.844;2024-01-25T10:45:56;50.03;;;7.10;;
54201;SDS011;40108;53.152;5.844;2024-01-25T10:48:24;40.42;;;6.85;;
54201;SDS011;40108;53.152;5.844;2024-01-25T10:50:51;49.60;;;7.80;;
54201;SDS011;40108;53.152;5.844;2024-01-25T10:53:18;47.20;;;7.78;;
54201;SDS011;40108;53.152;5.844;2024-01-25T10:55:44;41.70;;;7.63;;
54201;SDS011;40108;53.152;5.844;2024-01-25T10:58:12;41.67;;;7.05;;
54201;SDS011;40108;53.152;5.844;2024-01-25T11:00:39;49.33;;;7.93;;
54201;SDS011;40108;53.152;5.844;2024-01-25T11:03:05;43.53;;;8.00;;
54201;SDS011;40108;53.152;5.844;2024-01-25T11:05:32;45.03;;;7.75;;
54201;SDS011;40108;53.152;5.844;2024-01-25T11:07:57;44.30;;;8.02;;
54201;SDS011;40108;53.152;5.844;2024-01-25T11:10:27;45.83;;;7.47;;
54201;SDS011;40108;53.152;5.844;2024-01-25T11:12:57;43.60;;;7.15;;
54201;SDS011;40108;53.152;5.844;2024-01-25T11:15:31;50.80;;;7.17;;
54201;SDS011;40108;53.152;5.844;2024-01-25T11:17:58;37.97;;;6.72;;
54201;SDS011;40108;53.152;5.844;2024-01-25T11:20:26;46.42;;;7.50;;
54201;SDS011;40108;53.152;5.844;2024-01-25T11:22:56;41.67;;;7.05;;
54201;SDS011;40108;53.152;5.844;2024-01-25T11:25:26;44.40;;;7.65;;
54201;SDS011;40108;53.152;5.844;2024-01-25T11:27:53;40.65;;;7.80;;
54201;SDS011;40108;53.152;5.844;2024-01-25T11:30:20;40.45;;;7.45;;
54201;SDS011;40108;53.152;5.844;2024-01-25T11:32:48;45.03;;;6.78;;
54201;SDS011;40108;53.152;5.844;2024-01-25T11:35:15;46.13;;;6.93;;
54201;SDS011;40108;53.152;5.844;2024-01-25T11:37:42;49.05;;;7.68;;
54201;SDS011;40108;53.152;5.844;2024-01-25T11:40:10;51.03;;;8.05;;
54201;SDS011;40108;53.152;5.844;2024-01-25T11:42:36;51.20;;;8.23;;
54201;SDS011;40108;53.152;5.844;2024-01-25T11:45:02;44.08;;;7.25;;
54201;SDS011;40108;53.152;5.844;2024-01-25T11:47:29;44.38;;;7.80;;
54201;SDS011;40108;53.152;5.844;2024-01-25T11:49:55;43.05;;;7.53;;
54201;SDS011;40108;53.152;5.844;2024-01-25T11:52:21;38.85;;;6.70;;
54201;SDS011;40108;53.152;5.844;2024-01-25T11:54:47;46.67;;;7.03;;
54201;SDS011;40108;53.152;5.844;2024-01-25T11:57:12;47.53;;;7.28;;
54201;SDS011;40108;53.152;5.844;2024-01-25T11:59:38;41.47;;;6.82;;
54201;SDS011;40108;53.152;5.844;2024-01-25T12:02:04;43.13;;;6.97;;
54201;SDS011;40108;53.152;5.844;2024-01-25T12:04:30;41.53;;;7.38;;
54201;SDS011;40108;53.152;5.844;2024-01-25T12:06:56;36.33;;;6.13;;
54201;SDS011;40108;53.152;5.844;2024-01-25T12:09:21;46.30;;;7.85;;
54201;SDS011;40108;53.152;5.844;2024-01-25T12:11:49;53.20;;;7.88;;
54201;SDS011;40108;53.152;5.844;2024-01-25T12:14:16;46.65;;;7.28;;
54201;SDS011;40108;53.152;5.844;2024-01-25T12:16:42;45.35;;;7.20;;
54201;SDS011;40108;53.152;5.844;2024-01-25T12:19:08;50.45;;;7.43;;
54201;SDS011;40108;53.152;5.844;2024-01-25T12:21:33;44.90;;;7.55;;
54201;SDS011;40108;53.152;5.844;2024-01-25T12:24:00;39.50;;;6.93;;
54201;SDS011;40108;53.152;5.844;2024-01-25T12:26:25;49.47;;;7.28;;
54201;SDS011;40108;53.152;5.844;2024-01-25T12:28:51;47.63;;;7.28;;
54201;SDS011;40108;53.152;5.844;2024-01-25T12:31:16;50.67;;;6.97;;
54201;SDS011;40108;53.152;5.844;2024-01-25T12:33:42;34.83;;;6.93;;
54201;SDS011;40108;53.152;5.844;2024-01-25T12:36:08;51.65;;;7.20;;
54201;SDS011;40108;53.152;5.844;2024-01-25T12:38:34;31.17;;;6.05;;
54201;SDS011;40108;53.152;5.844;2024-01-25T12:41:00;36.40;;;5.97;;
54201;SDS011;40108;53.152;5.844;2024-01-25T12:43:26;45.60;;;7.82;;
54201;SDS011;40108;53.152;5.844;2024-01-25T12:45:52;51.90;;;8.40;;
54201;SDS011;40108;53.152;5.844;2024-01-25T12:48:18;48.78;;;7.97;;
54201;SDS011;40108;53.152;5.844;2024-01-25T12:50:43;38.72;;;7.25;;
54201;SDS011;40108;53.152;5.844;2024-01-25T12:53:10;45.00;;;7.47;;
54201;SDS011;40108;53.152;5.844;2024-01-25T12:55:37;47.78;;;7.70;;
54201;SDS011;40108;53.152;5.844;2024-01-25T12:58:03;51.90;;;8.55;;
54201;SDS011;40108;53.152;5.844;2024-01-25T13:00:29;44.80;;;7.63;;
54201;SDS011;40108;53.152;5.844;2024-01-25T13:02:55;44.85;;;7.20;;
54201;SDS011;40108;53.152;5.844;2024-01-25T13:05:22;40.13;;;7.15;;
54201;SDS011;40108;53.152;5.844;2024-01-25T13:07:48;38.15;;;6.72;;
54201;SDS011;40108;53.152;5.844;2024-01-25T13:10:14;48.58;;;7.95;;
54201;SDS011;40108;53.152;5.844;2024-01-25T13:12:40;40.53;;;8.07;;
54201;SDS011;40108;53.152;5.844;2024-01-25T13:15:06;46.38;;;8.40;;
54201;SDS011;40108;53.152;5.844;2024-01-25T13:17:36;47.30;;;8.52;;
54201;SDS011;40108;53.152;5.844;2024-01-25T13:20:02;47.60;;;8.07;;
54201;SDS011;40108;53.152;5.844;2024-01-25T13:22:31;40.05;;;8.18;;
54201;SDS011;40108;53.152;5.844;2024-01-25T13:24:58;43.00;;;8.00;;
54201;SDS011;40108;53.152;5.844;2024-01-25T13:27:25;51.78;;;8.63;;
54201;SDS011;40108;53.152;5.844;2024-01-25T13:29:51;45.97;;;7.47;;
54201;SDS011;40108;53.152;5.844;2024-01-25T13:32:17;41.10;;;8.18;;
54201;SDS011;40108;53.152;5.844;2024-01-25T13:34:42;47.75;;;7.75;;
54201;SDS011;40108;53.152;5.844;2024-01-25T13:37:08;44.47;;;8.32;;
54201;SDS011;40108;53.152;5.844;2024-01-25T13:39:34;45.15;;;7.45;;
54201;SDS011;40108;53.152;5.844;2024-01-25T13:41:59;51.95;;;8.35;;
54201;SDS011;40108;53.152;5.844;2024-01-25T13:44:25;48.17;;;7.50;;
54201;SDS011;40108;53.152;5.844;2024-01-25T13:46:51;48.33;;;7.70;;
54201;SDS011;40108;53.152;5.844;2024-01-25T13:49:16;52.70;;;8.23;;
54201;SDS011;40108;53.152;5.844;2024-01-25T13:51:43;44.85;;;6.78;;
54201;SDS011;40108;53.152;5.844;2024-01-25T13:54:09;41.60;;;6.72;;
54201;SDS011;40108;53.152;5.844;2024-01-25T13:56:35;44.40;;;7.18;;
54201;SDS011;40108;53.152;5.844;2024-01-25T13:59:01;39.83;;;7.32;;
54201;SDS011;40108;53.152;5.844;2024-01-25T14:01:26;49.53;;;6.50;;
54201;SDS011;40108;53.152;5.844;2024-01-25T14:03:52;42.83;;;7.78;;
54201;SDS011;40108;53.152;5.844;2024-01-25T14:06:18;47.83;;;7.63;;
54201;SDS011;40108;53.152;5.844;2024-01-25T14:08:43;47.05;;;7.43;;
54201;SDS011;40108;53.152;5.844;2024-01-25T14:11:09;43.22;;;6.00;;
54201;SDS011;40108;53.152;5.844;2024-01-25T14:13:35;38.92;;;6.63;;
54201;SDS011;40108;53.152;5.844;2024-01-25T14:16:01;48.38;;;8.68;;
54201;SDS011;40108;53.152;5.844;2024-01-25T14:18:27;45.80;;;7.43;;
54201;SDS011;40108;53.152;5.844;2024-01-25T14:20:54;38.05;;;6.18;;
54201;SDS011;40108;53.152;5.844;2024-01-25T14:23:20;45.95;;;7.78;;
54201;SDS011;40108;53.152;5.844;2024-01-25T14:25:45;38.42;;;6.38;;
54201;SDS011;40108;53.152;5.844;2024-01-25T14:28:11;40.90;;;7.22;;